Terminal Aerodrome Forecast
Issued by NWS

Current Version | Previous Version | Text Only | Print | Product List | Glossary On
Versions: 1 2 3 4 5 6 7 8 9 10 11 12
000
FTAK31 PAJN 252300
TAFAYA
TAF
PAYA 252339Z 2600/2624 14009G16KT P6SM SCT070 SCT120
     FM260500 08007KT P6SM BKN100
     FM261400 09012KT P6SM BKN050 OVC100
     FM262000 10012KT P6SM VCSH BKN040 OVC070
      AMD LTD TO CLD VIS AND WIND 2601/2610=

USA.gov is the U.S. government's official web portal to all federal, state and local government web resources and services.